Time;durP1;ratioP1;P1;durP2;ratioP2;P2;SDS_P1;SDS_P2;PMS_P1;PMS_P2;Temp;Humidity;BMP_temperature;BMP_pressure;BME280_temperature;BME280_humidity;BME280_pressure;Samples;Min_cycle;Max_cycle;Signal;HPM_P1;HPM_P2
2020/12/24 00:59:15;;;;;;;;;;;;;;;;;;;;;
2020/12/24 01:02:34;;;;;;;1.85;0.90;;;17.50;44.50;;;;;;4781996;30;20280;-81
2020/12/24 02:23:49;;;;;;;;;;;;;;;;;;;;;
2020/12/24 02:27:06;;;;;;;;;;;;;;;;;;;;;
2020/12/24 03:01:00;;;;;;;1.33;0.93;;;17.40;45.00;;;;;;5912935;24;20165;-79
2020/12/24 03:15:08;;;;;;;;;;;;;;;;;;;;;
2020/12/24 03:39:39;;;;;;;0.82;0.80;;;17.30;45.30;;;;;;5858633;24;20198;-81
2020/12/24 04:14:18;;;;;;;1.40;1.00;;;17.30;45.40;;;;;;5940481;24;20504;-81
2020/12/24 05:34:46;;;;;;;1.08;0.80;;;17.40;44.60;;;;;;5912298;24;20160;-81
2020/12/24 05:41:29;;;;;;;0.60;0.60;;;17.50;44.40;;;;;;5912186;24;20249;-81
2020/12/24 05:44:53;;;;;;;;;;;;;;;;;;;;;
2020/12/24 05:50:52;;;;;;;0.90;0.80;;;17.50;44.20;;;;;;5912757;24;20172;-81
2020/12/24 05:57:07;;;;;;;1.25;0.90;;;17.40;44.20;;;;;;5910295;24;20177;-80
2020/12/24 06:30:49;;;;;;;0.90;0.63;;;17.40;44.00;;;;;;5915340;24;20212;-81
2020/12/24 07:12:11;;;;;;;0.85;0.60;;;17.50;43.40;;;;;;5884941;24;20162;-81
2020/12/24 08:24:21;;;;;;;0.90;0.80;;;17.40;42.80;;;;;;5674929;25;20620;-80
2020/12/24 08:26:56;;;;;;;0.88;0.70;;;17.40;42.70;;;;;;5695176;25;20158;-81
2020/12/24 08:29:30;;;;;;;1.00;0.80;;;17.40;42.90;;;;;;5728052;25;20180;-81
2020/12/24 08:31:56;;;;;;;0.90;0.70;;;17.40;42.60;;;;;;5730006;25;20172;-81
2020/12/24 08:34:30;;;;;;;0.88;0.70;;;17.50;42.60;;;;;;5749622;25;20161;-81
2020/12/24 08:36:57;;;;;;;0.77;0.70;;;17.50;42.60;;;;;;5749321;25;20562;-81
2020/12/24 08:39:31;;;;;;;0.65;0.65;;;17.50;42.60;;;;;;5739798;24;20225;-81
2020/12/24 08:42:03;;;;;;;0.68;0.68;;;17.50;42.60;;;;;;5735173;24;20225;-80
2020/12/24 08:44:41;;;;;;;0.68;0.68;;;17.40;42.70;;;;;;5756725;24;20174;-81
2020/12/24 08:47:10;;;;;;;0.98;0.70;;;17.40;42.70;;;;;;5790852;24;20162;-81
2020/12/24 08:49:41;;;;;;;0.85;0.70;;;17.40;42.50;;;;;;5805805;24;20174;-81
2020/12/24 08:52:28;;;;;;;0.88;0.70;;;17.40;42.60;;;;;;5863555;24;20218;-80
2020/12/24 08:55:07;;;;;;;1.08;0.90;;;17.40;42.50;;;;;;6005736;23;20154;-80
2020/12/24 08:57:37;;;;;;;0.70;0.70;;;17.40;42.50;;;;;;6042556;23;20181;-81
2020/12/24 09:00:26;;;;;;;0.73;0.65;;;17.50;42.30;;;;;;6102338;23;20173;-81
2020/12/24 09:03:26;;;;;;;0.90;0.80;;;17.50;42.30;;;;;;6087320;23;20232;-81
2020/12/24 09:06:04;;;;;;;0.55;0.55;;;17.50;42.50;;;;;;6113020;23;20148;-80
2020/12/24 09:08:39;;;;;;;1.05;0.80;;;17.40;42.40;;;;;;6115918;23;20156;-81
2020/12/24 09:14:26;;;;;;;0.77;0.70;;;17.40;42.40;;;;;;6016546;23;20154;-80
2020/12/24 09:17:01;;;;;;;0.60;0.60;;;17.40;42.30;;;;;;6024664;23;20165;-81
2020/12/24 09:19:33;;;;;;;0.93;0.73;;;17.50;42.30;;;;;;6002723;23;20158;-81
2020/12/24 09:22:07;;;;;;;0.50;0.50;;;17.50;42.30;;;;;;6002359;23;20154;-80
2020/12/24 09:24:33;;;;;;;0.70;0.70;;;17.40;42.20;;;;;;6002427;23;20154;-82
2020/12/24 09:27:05;;;;;;;1.10;0.80;;;17.50;42.20;;;;;;6024987;23;20146;-81
2020/12/24 09:29:44;;;;;;;0.85;0.63;;;17.50;42.00;;;;;;6026093;23;20503;-81
2020/12/24 09:32:13;;;;;;;0.80;0.70;;;17.50;42.00;;;;;;6049224;23;20455;-80
2020/12/24 09:34:50;;;;;;;0.60;0.55;;;17.50;41.90;;;;;;6047378;23;20177;-81
2020/12/24 09:37:28;;;;;;;1.15;0.80;;;17.60;42.00;;;;;;6002193;23;20273;-80
2020/12/24 09:40:00;;;;;;;0.90;0.68;;;17.50;42.10;;;;;;6025676;23;20182;-81
2020/12/24 09:42:57;;;;;;;0.82;0.70;;;17.50;41.90;;;;;;6024259;23;20158;-81
2020/12/24 09:45:32;;;;;;;2.08;0.73;;;17.50;42.00;;;;;;6076463;23;20600;-81
2020/12/24 09:48:11;;;;;;;0.65;0.65;;;17.40;42.10;;;;;;6088937;23;20152;-81
2020/12/24 09:51:11;;;;;;;0.68;0.68;;;17.40;42.20;;;;;;6114272;23;20143;-80
2020/12/24 09:53:49;;;;;;;0.60;0.60;;;17.50;41.90;;;;;;6139660;23;20215;-80
2020/12/24 09:56:32;;;;;;;0.90;0.80;;;17.50;41.90;;;;;;6141821;23;20133;-82
2020/12/24 09:59:09;;;;;;;1.00;0.90;;;17.50;41.90;;;;;;6087902;23;20260;-81
2020/12/24 10:01:51;;;;;;;0.70;0.70;;;17.50;41.70;;;;;;6088566;23;20148;-81
2020/12/24 10:04:24;;;;;;;0.93;0.80;;;17.50;41.80;;;;;;6044374;23;20164;-82
2020/12/24 10:06:59;;;;;;;1.00;0.85;;;17.50;41.70;;;;;;6089564;23;20185;-81
2020/12/24 10:09:40;;;;;;;0.90;0.70;;;17.60;41.80;;;;;;6042133;23;20145;-80
2020/12/24 10:12:11;;;;;;;0.70;0.70;;;17.50;41.70;;;;;;6064853;23;20152;-80
2020/12/24 10:14:44;;;;;;;0.80;0.80;;;17.60;41.90;;;;;;6066876;23;20164;-81
2020/12/24 10:17:17;;;;;;;0.80;0.80;;;17.50;41.60;;;;;;6039753;23;20180;-80
2020/12/24 10:20:34;;;;;;;1.00;0.90;;;17.50;41.80;;;;;;6088146;23;20133;-81
2020/12/24 10:23:10;;;;;;;1.23;0.90;;;17.50;41.60;;;;;;6011304;23;20155;-81
2020/12/24 10:25:44;;;;;;;1.02;0.90;;;17.50;41.60;;;;;;6047344;23;20133;-80
2020/12/24 10:28:17;;;;;;;0.80;0.75;;;17.50;41.80;;;;;;6029731;23;20162;-81
2020/12/24 10:30:59;;;;;;;1.40;0.90;;;17.50;41.90;;;;;;6052171;23;20150;-81
2020/12/24 10:33:29;;;;;;;0.93;0.80;;;17.40;41.80;;;;;;6031618;23;20162;-81
2020/12/24 10:36:18;;;;;;;;;;;;;;;;;;;;;
2020/12/24 10:41:57;;;;;;;0.80;0.80;;;17.50;41.80;;;;;;6052574;23;20190;-81
2020/12/24 10:44:42;;;;;;;1.08;0.85;;;17.50;41.80;;;;;;6053304;23;20135;-81
2020/12/24 10:47:36;;;;;;;0.80;0.77;;;17.40;41.80;;;;;;6004750;23;20597;-80
2020/12/24 10:50:21;;;;;;;0.60;0.60;;;17.50;41.80;;;;;;6046447;23;20542;-81
2020/12/24 10:53:19;;;;;;;1.05;0.82;;;17.50;41.80;;;;;;6052857;23;20177;-81
2020/12/24 10:56:03;;;;;;;0.80;0.80;;;17.50;41.90;;;;;;6053007;23;20250;-80
2020/12/24 10:58:31;;;;;;;1.13;0.90;;;17.50;42.40;;;;;;6069379;23;20199;-81
2020/12/24 11:01:25;;;;;;;0.73;0.70;;;17.50;41.70;;;;;;6141215;23;20279;-81
2020/12/24 11:04:15;;;;;;;1.00;0.80;;;17.50;41.70;;;;;;6121670;23;20588;-81
2020/12/24 11:06:45;;;;;;;0.98;0.80;;;17.50;41.70;;;;;;6086008;23;20537;-81
2020/12/24 11:09:41;;;;;;;0.82;0.70;;;17.50;41.70;;;;;;6113340;23;20234;-81
2020/12/24 11:12:37;;;;;;;0.80;0.70;;;17.40;41.70;;;;;;6140694;23;20359;-81
2020/12/24 11:15:10;;;;;;;1.02;0.93;;;17.40;41.70;;;;;;6100384;23;20167;-81
2020/12/24 11:17:52;;;;;;;1.10;0.70;;;17.40;41.80;;;;;;6118465;23;20171;-81
2020/12/24 11:20:51;;;;;;;1.00;0.88;;;17.40;41.80;;;;;;6141114;23;20197;-81
2020/12/24 11:23:41;;;;;;;1.20;0.88;;;17.40;41.90;;;;;;6144078;23;20132;-81
2020/12/24 11:26:26;;;;;;;0.73;0.73;;;17.40;41.90;;;;;;6141689;23;20156;-81
2020/12/24 11:28:58;;;;;;;1.40;1.00;;;17.40;41.70;;;;;;6116308;23;20158;-81
2020/12/24 11:31:31;;;;;;;1.00;0.80;;;17.50;41.70;;;;;;6117316;23;20167;-81
2020/12/24 11:34:22;;;;;;;1.00;0.80;;;17.40;41.80;;;;;;6141752;23;20143;-81
2020/12/24 11:36:57;;;;;;;1.00;0.80;;;17.30;41.80;;;;;;6143719;23;20144;-81
2020/12/24 11:39:52;;;;;;;1.02;0.80;;;17.40;41.70;;;;;;6142204;23;20171;-81
2020/12/24 11:42:52;;;;;;;1.02;0.77;;;17.40;41.80;;;;;;6142765;23;20152;-80
2020/12/24 11:45:43;;;;;;;0.90;0.85;;;17.40;41.70;;;;;;6143393;23;20235;-81
2020/12/24 11:48:26;;;;;;;1.02;0.80;;;17.40;41.60;;;;;;6143425;23;20166;-81
2020/12/24 11:51:26;;;;;;;0.63;0.63;;;17.40;41.60;;;;;;6140365;23;20163;-82
2020/12/24 11:54:08;;;;;;;0.73;0.73;;;17.40;41.70;;;;;;6113378;23;20156;-82
2020/12/24 11:56:56;;;;;;;0.82;0.82;;;17.50;41.60;;;;;;6092682;23;20152;-81
2020/12/24 11:59:56;;;;;;;0.88;0.70;;;17.50;41.60;;;;;;6118661;23;20201;-81
2020/12/24 12:02:40;;;;;;;1.00;0.90;;;17.50;41.60;;;;;;6132923;23;20492;-81
2020/12/24 12:05:28;;;;;;;0.85;0.82;;;17.40;41.70;;;;;;6143745;23;20151;-81
2020/12/24 12:07:57;;;;;;;0.88;0.80;;;17.40;41.60;;;;;;6140642;23;20244;-81
2020/12/24 12:10:28;;;;;;;0.93;0.70;;;17.40;41.50;;;;;;6141150;23;20148;-82
2020/12/24 12:13:10;;;;;;;1.00;0.82;;;17.40;41.50;;;;;;6093141;23;20257;-81
2020/12/24 12:15:43;;;;;;;0.80;0.80;;;17.50;41.60;;;;;;6117415;23;20132;-81
2020/12/24 12:18:27;;;;;;;0.70;0.70;;;17.50;41.40;;;;;;6140735;23;20179;-81
2020/12/24 12:21:10;;;;;;;1.40;0.95;;;17.50;41.30;;;;;;6140730;23;20195;-81
2020/12/24 12:23:45;;;;;;;0.63;0.63;;;17.50;41.50;;;;;;6141753;23;20151;-81
2020/12/24 12:26:18;;;;;;;0.93;0.80;;;17.40;41.50;;;;;;6139355;23;20154;-81
2020/12/24 12:28:48;;;;;;;0.82;0.70;;;17.50;41.50;;;;;;6141453;23;20604;-82
2020/12/24 12:31:45;;;;;;;0.70;0.63;;;17.50;41.40;;;;;;6117038;23;20146;-83
2020/12/24 12:34:44;;;;;;;0.90;0.68;;;17.50;41.40;;;;;;6092443;23;20156;-81
2020/12/24 12:37:18;;;;;;;0.57;0.57;;;17.40;41.40;;;;;;5957285;24;20155;-81
2020/12/24 12:40:04;;;;;;;0.60;0.60;;;17.40;41.50;;;;;;5956102;23;20243;-82
2020/12/24 12:42:38;;;;;;;0.80;0.65;;;17.40;41.60;;;;;;6003221;23;20158;-81
2020/12/24 12:45:16;;;;;;;0.85;0.70;;;17.50;41.40;;;;;;6026170;23;20134;-82
2020/12/24 12:47:54;;;;;;;0.60;0.60;;;17.50;41.20;;;;;;6026262;23;20221;-81
2020/12/24 12:50:22;;;;;;;0.80;0.68;;;17.40;41.30;;;;;;6021681;23;20159;-82
2020/12/24 12:52:52;;;;;;;0.70;0.70;;;17.50;42.00;;;;;;6025901;23;20199;-82
2020/12/24 12:55:41;;;;;;;0.80;0.80;;;17.50;41.20;;;;;;5978873;23;20155;-81
2020/12/24 12:58:11;;;;;;;0.80;0.80;;;17.50;41.30;;;;;;5992432;23;20253;-79
2020/12/24 13:00:52;;;;;;;0.93;0.77;;;17.50;41.40;;;;;;6017614;23;20158;-80
2020/12/24 13:03:22;;;;;;;0.70;0.68;;;17.50;41.30;;;;;;6019720;23;20183;-81
2020/12/24 13:05:53;;;;;;;0.82;0.73;;;17.40;41.30;;;;;;5972954;23;20138;-81
2020/12/24 13:08:23;;;;;;;1.00;0.90;;;17.40;41.40;;;;;;5994025;23;20163;-80
2020/12/24 13:11:11;;;;;;;0.80;0.80;;;17.50;41.30;;;;;;5996339;23;20139;-80
2020/12/24 13:13:45;;;;;;;0.80;0.80;;;17.50;41.30;;;;;;6059658;23;20183;-80
2020/12/24 13:16:15;;;;;;;0.80;0.70;;;17.40;41.10;;;;;;6138654;23;20178;-80
2020/12/24 13:18:54;;;;;;;0.60;0.60;;;17.50;41.10;;;;;;6087508;23;20180;-80
2020/12/24 13:21:48;;;;;;;0.90;0.70;;;17.50;41.10;;;;;;6111669;23;20155;-80
2020/12/24 13:24:41;;;;;;;0.60;0.60;;;17.50;41.10;;;;;;6112587;23;20136;-80
2020/12/24 13:27:21;;;;;;;0.80;0.80;;;17.40;41.20;;;;;;6112176;23;20139;-80
2020/12/24 13:30:18;;;;;;;0.98;0.80;;;17.40;41.20;;;;;;6138703;23;20132;-80
2020/12/24 13:33:10;;;;;;;0.98;0.80;;;17.40;41.20;;;;;;6113268;23;20133;-80
2020/12/24 13:35:39;;;;;;;0.70;0.70;;;17.40;41.20;;;;;;6137496;23;20666;-80
2020/12/24 13:38:10;;;;;;;0.85;0.65;;;17.50;41.20;;;;;;6086602;23;20166;-80
2020/12/24 13:40:40;;;;;;;0.70;0.60;;;17.50;41.20;;;;;;6063825;23;20148;-80
2020/12/24 13:43:27;;;;;;;0.70;0.70;;;17.40;41.30;;;;;;6112506;23;20137;-81
2020/12/24 13:46:00;;;;;;;0.70;0.70;;;17.50;41.10;;;;;;6111595;23;20631;-80
2020/12/24 13:48:51;;;;;;;0.68;0.68;;;17.40;41.00;;;;;;6087683;23;20199;-80
2020/12/24 13:51:23;;;;;;;0.80;0.60;;;17.50;41.00;;;;;;6086040;23;20152;-80
2020/12/24 13:54:07;;;;;;;0.70;0.70;;;17.50;41.10;;;;;;6063336;23;20151;-80
2020/12/24 13:56:50;;;;;;;1.27;0.82;;;17.50;41.00;;;;;;6065083;23;20239;-81
2020/12/24 13:59:21;;;;;;;0.70;0.70;;;17.40;41.10;;;;;;6098921;23;20295;-80
2020/12/24 14:02:28;;;;;;;0.95;0.70;;;17.40;41.10;;;;;;6087052;23;20211;-80
2020/12/24 14:05:14;;;;;;;0.70;0.70;;;17.40;41.10;;;;;;6137494;23;20137;-80
2020/12/24 14:07:59;;;;;;;0.90;0.77;;;17.40;41.10;;;;;;6107045;23;20136;-80
2020/12/24 14:10:39;;;;;;;1.13;1.02;;;17.40;41.20;;;;;;6065078;23;20515;-80
2020/12/24 14:13:13;;;;;;;0.70;0.70;;;17.50;41.20;;;;;;6112523;23;20136;-81
2020/12/24 14:15:49;;;;;;;1.08;0.77;;;17.50;41.00;;;;;;6137804;23;20151;-80
2020/12/24 14:18:26;;;;;;;0.93;0.90;;;17.40;41.00;;;;;;6137484;23;20163;-80
2020/12/24 14:21:08;;;;;;;0.77;0.65;;;17.40;41.00;;;;;;6136765;23;20137;-80
2020/12/24 14:23:53;;;;;;;0.60;0.60;;;17.40;40.90;;;;;;6112892;23;20143;-80
2020/12/24 14:26:27;;;;;;;0.70;0.70;;;17.50;40.90;;;;;;6115489;23;20148;-81
2020/12/24 14:29:20;;;;;;;0.60;0.60;;;17.50;40.80;;;;;;6089948;23;20160;-80
2020/12/24 14:31:55;;;;;;;1.75;0.70;;;17.50;40.80;;;;;;6094371;23;20484;-80
2020/12/24 14:34:35;;;;;;;1.85;0.80;;;17.50;40.80;;;;;;6112342;23;20144;-79
2020/12/24 14:37:31;;;;;;;0.90;0.70;;;17.50;40.80;;;;;;6112563;23;20183;-80
2020/12/24 14:40:18;;;;;;;1.13;0.82;;;17.50;40.80;;;;;;6102231;23;20663;-80
2020/12/24 14:43:01;;;;;;;0.93;0.85;;;17.40;40.90;;;;;;6066665;23;20155;-81
2020/12/24 14:45:40;;;;;;;0.80;0.80;;;17.40;40.80;;;;;;6065595;23;20167;-80
2020/12/24 14:48:24;;;;;;;0.85;0.80;;;17.50;40.80;;;;;;6111332;23;20222;-80
2020/12/24 14:51:11;;;;;;;0.70;0.70;;;17.50;40.80;;;;;;6088163;23;20187;-81
2020/12/24 14:54:07;;;;;;;0.70;0.70;;;17.50;40.80;;;;;;6089422;23;20152;-80
2020/12/24 14:56:38;;;;;;;0.85;0.85;;;17.50;40.90;;;;;;6093909;23;20496;-81
2020/12/24 14:59:15;;;;;;;0.80;0.80;;;17.40;40.90;;;;;;6093475;23;20202;-80
2020/12/24 15:01:44;;;;;;;0.93;0.80;;;17.50;40.80;;;;;;6117503;23;20134;-79
2020/12/24 15:04:18;;;;;;;1.15;0.93;;;17.50;40.70;;;;;;6093301;23;20151;-80
2020/12/24 15:06:51;;;;;;;0.80;0.80;;;17.50;40.80;;;;;;6095961;23;20474;-80
2020/12/24 15:09:24;;;;;;;1.35;0.98;;;17.40;40.80;;;;;;6092665;23;20179;-81
2020/12/24 15:12:18;;;;;;;1.02;0.90;;;17.40;40.90;;;;;;6140317;23;20171;-81
2020/12/24 15:14:50;;;;;;;0.88;0.88;;;17.40;40.90;;;;;;6140194;23;20136;-80
2020/12/24 15:17:26;;;;;;;1.05;0.90;;;17.40;40.90;;;;;;6140270;23;20144;-80
2020/12/24 15:19:59;;;;;;;0.80;0.80;;;17.40;40.90;;;;;;6141862;23;20158;-80
2020/12/24 15:22:39;;;;;;;0.93;0.82;;;17.40;40.80;;;;;;6117309;23;20167;-80
2020/12/24 15:25:17;;;;;;;1.10;1.00;;;17.60;40.70;;;;;;6118148;23;20187;-81
2020/12/24 15:27:52;;;;;;;1.10;1.00;;;17.50;40.80;;;;;;6167910;23;20156;-79
2020/12/24 15:30:21;;;;;;;0.80;0.80;;;17.50;40.80;;;;;;6168581;23;20507;-80
2020/12/24 15:33:00;;;;;;;0.80;0.80;;;17.50;40.70;;;;;;6141762;23;20462;-81
2020/12/24 15:35:33;;;;;;;1.00;0.90;;;17.50;40.80;;;;;;6118807;23;20147;-80
2020/12/24 15:38:05;;;;;;;0.80;0.80;;;17.40;40.80;;;;;;6141340;23;20191;-80
2020/12/24 15:40:35;;;;;;;1.05;0.95;;;17.50;40.80;;;;;;6141948;23;20127;-79
2020/12/24 15:43:19;;;;;;;0.80;0.65;;;17.50;40.80;;;;;;6140714;23;20572;-81
2020/12/24 15:45:49;;;;;;;0.70;0.70;;;17.40;40.70;;;;;;6093929;23;20174;-80
2020/12/24 15:48:18;;;;;;;1.00;0.90;;;17.40;40.70;;;;;;6092543;23;20558;-80
2020/12/24 16:54:27;;;;;;;;;;;;;;;;;;;;;
2020/12/24 17:15:01;;;;;;;0.90;0.90;;;17.40;40.50;;;;;;6164558;23;20185;-81
2020/12/24 21:59:37;;;;;;;;;;;;;;;;;;;;;
2020/12/24 22:55:27;;;;;;;0.80;0.80;;;17.10;41.10;;;;;;5796175;24;20236;-81
